createdAt,value
2017-09-11T00:01:17.340Z,15.80
2017-09-11T00:03:45.586Z,15.80
2017-09-11T00:06:13.454Z,15.80
2017-09-11T00:08:41.956Z,15.80
2017-09-11T00:11:09.471Z,15.80
2017-09-11T00:13:37.616Z,15.80
2017-09-11T00:16:06.021Z,15.80
2017-09-11T00:18:33.569Z,15.80
2017-09-11T00:21:01.089Z,15.70
2017-09-11T00:23:29.032Z,15.80
2017-09-11T00:25:57.353Z,15.80
2017-09-11T00:28:24.860Z,15.80
2017-09-11T00:30:52.368Z,15.70
2017-09-11T00:33:20.629Z,15.80
2017-09-11T00:35:48.229Z,15.80
2017-09-11T00:38:16.229Z,15.80
2017-09-11T00:40:44.276Z,15.80
2017-09-11T00:43:12.866Z,15.80
2017-09-11T00:45:40.470Z,15.80
2017-09-11T00:48:09.049Z,15.90
2017-09-11T00:50:37.897Z,15.90
2017-09-11T00:53:06.674Z,15.90
2017-09-11T00:55:34.722Z,15.90
2017-09-11T00:58:02.769Z,15.90
2017-09-11T01:00:31.180Z,15.90
2017-09-11T01:02:58.668Z,15.90
2017-09-11T01:05:26.757Z,15.90
2017-09-11T01:07:54.312Z,15.90
2017-09-11T01:10:22.095Z,15.80
2017-09-11T01:12:49.606Z,15.80
2017-09-11T01:15:17.119Z,15.80
2017-09-11T01:17:44.616Z,15.90
2017-09-11T01:20:12.488Z,15.80
2017-09-11T01:22:40.537Z,15.80
2017-09-11T01:25:08.434Z,15.80
2017-09-11T01:27:36.365Z,15.80
2017-09-11T01:30:03.877Z,15.80
2017-09-11T01:32:31.377Z,15.80
2017-09-11T01:34:58.890Z,15.80
2017-09-11T01:37:28.380Z,15.80
2017-09-11T01:39:56.266Z,15.80
2017-09-11T01:42:24.662Z,15.80
2017-09-11T01:44:52.982Z,15.80
2017-09-11T01:47:21.805Z,15.80
2017-09-11T01:49:49.672Z,15.80
2017-09-11T01:52:17.540Z,15.70
2017-09-11T01:54:45.053Z,15.80
2017-09-11T01:57:13.103Z,15.80
2017-09-11T01:59:40.630Z,15.80
2017-09-11T02:02:09.418Z,15.80
2017-09-11T02:04:37.735Z,15.70
2017-09-11T02:07:05.246Z,15.70
2017-09-11T02:09:32.847Z,15.70
2017-09-11T02:12:00.354Z,15.70
2017-09-11T02:14:27.864Z,15.60
2017-09-11T02:16:55.480Z,15.60
2017-09-11T02:19:23.532Z,15.50
2017-09-11T02:21:51.229Z,15.50
2017-09-11T02:24:19.098Z,15.50
2017-09-11T02:26:48.851Z,15.40
2017-09-11T02:29:16.361Z,15.40
2017-09-11T02:31:44.277Z,15.40
2017-09-11T02:34:12.708Z,15.40
2017-09-11T02:36:40.649Z,15.50
2017-09-11T02:39:08.790Z,15.50
2017-09-11T02:41:36.747Z,15.40
2017-09-11T02:44:04.365Z,15.40
2017-09-11T02:46:32.313Z,15.40
2017-09-11T02:49:00.925Z,15.40
2017-09-11T02:51:29.120Z,15.40
2017-09-11T02:53:56.810Z,15.40
2017-09-11T02:56:24.301Z,15.50
2017-09-11T02:58:52.101Z,15.50
2017-09-11T03:01:20.237Z,15.40
2017-09-11T03:03:48.541Z,15.40
2017-09-11T03:06:16.043Z,15.40
2017-09-11T03:08:43.557Z,15.40
2017-09-11T03:11:11.425Z,15.40
2017-09-11T03:13:38.934Z,15.40
2017-09-11T03:16:06.529Z,15.40
2017-09-11T03:18:35.169Z,15.60
2017-09-11T03:21:02.948Z,15.60
2017-09-11T03:23:31.178Z,15.70
2017-09-11T03:25:59.060Z,15.70
2017-09-11T03:28:27.385Z,15.70
2017-09-11T03:30:56.048Z,15.70
2017-09-11T03:33:24.182Z,15.70
2017-09-11T03:35:51.868Z,15.70
2017-09-11T03:38:20.174Z,15.70
2017-09-11T03:40:47.956Z,15.70
2017-09-11T03:43:15.908Z,15.70
2017-09-11T03:45:43.609Z,15.60
2017-09-11T03:48:11.767Z,15.60
2017-09-11T03:50:39.612Z,15.60
2017-09-11T03:53:07.572Z,15.70
2017-09-11T03:55:35.083Z,15.60
2017-09-11T03:58:03.044Z,15.60
2017-09-11T04:00:32.533Z,15.70
2017-09-11T04:03:00.859Z,15.70
2017-09-11T04:05:28.861Z,15.70
2017-09-11T04:07:57.284Z,15.60
2017-09-11T04:10:24.965Z,15.60
2017-09-11T04:12:53.548Z,15.60
2017-09-11T04:15:21.421Z,15.50
2017-09-11T04:17:48.961Z,15.50
2017-09-11T04:20:17.361Z,15.50
2017-09-11T04:22:45.682Z,15.40
2017-09-11T04:25:13.649Z,15.40
2017-09-11T04:27:41.181Z,15.30
2017-09-11T04:30:08.747Z,15.30
2017-09-11T04:32:39.084Z,15.20
2017-09-11T04:35:07.139Z,15.10
2017-09-11T04:37:34.754Z,15.20
2017-09-11T04:40:02.628Z,15.10
2017-09-11T04:42:30.860Z,15.10
2017-09-11T04:44:58.314Z,15.10
2017-09-11T04:47:26.317Z,15.10
2017-09-11T04:49:53.909Z,15.10
2017-09-11T04:52:21.461Z,15.00
2017-09-11T04:54:50.308Z,14.90
2017-09-11T04:57:18.314Z,14.90
2017-09-11T04:59:45.757Z,14.90
2017-09-11T05:02:13.470Z,14.90
2017-09-11T05:04:42.137Z,14.90
2017-09-11T05:07:09.573Z,14.90
2017-09-11T05:09:37.055Z,14.90
2017-09-11T05:12:04.590Z,14.90
2017-09-11T05:14:32.794Z,14.90
2017-09-11T05:17:00.284Z,14.90
2017-09-11T05:19:29.341Z,14.90
2017-09-11T05:21:57.289Z,14.90
2017-09-11T05:24:25.067Z,15.00
2017-09-11T05:26:53.669Z,15.00
2017-09-11T05:29:21.132Z,14.90
2017-09-11T05:31:49.310Z,15.00
2017-09-11T05:34:17.156Z,15.00
2017-09-11T05:36:44.644Z,15.00
2017-09-11T05:39:12.083Z,15.00
2017-09-11T05:41:39.650Z,15.00
2017-09-11T05:44:07.107Z,15.00
2017-09-11T05:46:34.978Z,15.00
2017-09-11T05:49:03.255Z,15.00
2017-09-11T05:51:31.460Z,15.10
2017-09-11T05:53:59.243Z,15.10
2017-09-11T05:56:26.717Z,15.20
2017-09-11T05:58:54.433Z,15.10
2017-09-11T06:01:22.401Z,15.10
2017-09-11T06:03:50.621Z,15.10
2017-09-11T06:06:18.282Z,15.10
2017-09-11T06:08:46.052Z,15.10
2017-09-11T06:11:14.621Z,15.00
2017-09-11T06:13:42.870Z,15.10
2017-09-11T06:16:11.074Z,15.00
2017-09-11T06:18:38.516Z,15.00
2017-09-11T06:21:06.482Z,15.00
2017-09-11T06:23:34.360Z,15.00
2017-09-11T06:26:02.083Z,15.00
2017-09-11T06:28:29.573Z,15.00
2017-09-11T06:30:57.806Z,15.10
2017-09-11T06:33:25.570Z,15.00
2017-09-11T06:35:55.360Z,15.10
2017-09-11T06:38:24.868Z,15.20
2017-09-11T06:40:53.110Z,15.20
2017-09-11T06:43:20.856Z,15.20
2017-09-11T06:45:49.016Z,15.20
2017-09-11T06:48:16.797Z,15.20
2017-09-11T06:50:44.278Z,15.10
2017-09-11T06:53:11.715Z,15.10
2017-09-11T06:55:39.489Z,15.20
2017-09-11T06:58:07.234Z,15.20
2017-09-11T07:00:35.080Z,15.20
2017-09-11T07:03:02.702Z,15.30
2017-09-11T07:05:30.176Z,15.30
2017-09-11T07:07:59.152Z,15.40
2017-09-11T07:10:26.631Z,15.40
2017-09-11T07:13:06.025Z,15.40
2017-09-11T07:15:34.259Z,15.30
2017-09-11T07:18:01.701Z,15.30
2017-09-11T07:20:29.915Z,15.30
2017-09-11T07:22:57.642Z,15.30
2017-09-11T07:25:26.072Z,15.30
2017-09-11T07:27:53.742Z,15.20
2017-09-11T07:30:21.977Z,15.30
2017-09-11T07:32:49.803Z,15.30
2017-09-11T07:35:17.622Z,15.40
2017-09-11T07:37:45.106Z,15.40
2017-09-11T07:40:12.642Z,15.40
2017-09-11T07:42:40.622Z,15.30
2017-09-11T07:45:09.691Z,15.30
2017-09-11T07:47:37.549Z,15.30
2017-09-11T07:50:05.478Z,15.30
2017-09-11T07:52:33.014Z,15.40
2017-09-11T07:55:00.502Z,15.40
2017-09-11T07:57:28.969Z,15.50
2017-09-11T07:59:56.420Z,15.40
2017-09-11T08:02:25.065Z,15.50
2017-09-11T08:04:52.533Z,15.50
2017-09-11T08:07:19.977Z,15.60
2017-09-11T08:09:48.206Z,15.60
2017-09-11T08:12:17.391Z,15.70
2017-09-11T08:14:44.910Z,15.70
2017-09-11T08:17:13.713Z,15.70
2017-09-11T08:19:41.706Z,15.80
2017-09-11T08:22:09.673Z,15.70
2017-09-11T08:24:38.168Z,15.80
2017-09-11T08:27:05.612Z,15.80
2017-09-11T08:29:33.106Z,15.80
2017-09-11T08:32:01.149Z,16.00
2017-09-11T08:34:28.616Z,16.00
2017-09-11T08:36:56.190Z,16.10
2017-09-11T08:39:23.702Z,16.20
2017-09-11T08:41:51.485Z,16.20
2017-09-11T08:44:19.135Z,16.20
2017-09-11T08:46:48.210Z,16.20
2017-09-11T08:49:16.159Z,16.20
2017-09-11T08:51:43.594Z,16.20
2017-09-11T08:54:11.031Z,16.30
2017-09-11T08:56:38.564Z,16.20
2017-09-11T08:59:06.279Z,16.20
2017-09-11T09:01:34.117Z,16.20
2017-09-11T09:04:01.839Z,16.20
2017-09-11T09:06:29.290Z,16.20
2017-09-11T09:08:57.512Z,16.10
2017-09-11T09:11:25.413Z,16.10
2017-09-11T09:13:52.995Z,16.20
2017-09-11T09:16:20.791Z,16.10
2017-09-11T09:18:48.253Z,16.20
2017-09-11T09:21:16.070Z,16.30
2017-09-11T09:23:43.826Z,16.50
2017-09-11T09:26:11.580Z,16.60
2017-09-11T09:28:39.888Z,16.70
2017-09-11T09:31:07.565Z,16.60
2017-09-11T09:33:37.060Z,16.50
2017-09-11T09:36:05.063Z,16.50
2017-09-11T09:38:32.502Z,16.50
2017-09-11T09:40:59.981Z,16.40
2017-09-11T09:43:27.432Z,16.40
2017-09-11T09:45:55.283Z,16.30
2017-09-11T09:48:23.246Z,16.30
2017-09-11T09:50:50.714Z,16.30
2017-09-11T09:53:18.251Z,16.30
2017-09-11T09:55:46.473Z,16.20
2017-09-11T09:58:14.344Z,16.20
2017-09-11T10:00:43.107Z,16.20
2017-09-11T10:03:10.589Z,16.20
2017-09-11T10:05:39.180Z,16.20
2017-09-11T10:08:07.264Z,16.30
2017-09-11T10:10:34.821Z,16.50
2017-09-11T10:13:02.257Z,16.70
2017-09-11T10:15:31.644Z,17.10
2017-09-11T10:17:59.878Z,17.20
2017-09-11T10:20:28.529Z,17.30
2017-09-11T10:22:56.194Z,17.30
2017-09-11T10:25:23.999Z,17.30
2017-09-11T10:27:51.471Z,17.40
2017-09-11T10:30:21.230Z,17.40
2017-09-11T10:32:48.671Z,17.30
2017-09-11T10:35:16.550Z,17.40
2017-09-11T10:37:44.025Z,17.40
2017-09-11T10:40:13.002Z,17.30
2017-09-11T10:42:40.445Z,17.30
2017-09-11T10:45:08.262Z,17.30
2017-09-11T10:47:35.937Z,17.50
2017-09-11T10:50:03.701Z,17.60
2017-09-11T10:52:31.137Z,17.70
2017-09-11T10:54:58.637Z,17.80
2017-09-11T10:57:27.029Z,17.80
2017-09-11T10:59:54.953Z,17.70
2017-09-11T11:02:24.470Z,17.90
2017-09-11T11:04:53.142Z,18.20
2017-09-11T11:07:20.585Z,18.10
2017-09-11T11:09:48.056Z,18.30
2017-09-11T11:12:16.690Z,18.50
2017-09-11T11:14:44.157Z,18.50
2017-09-11T11:17:12.369Z,18.60
2017-09-11T11:19:39.861Z,18.50
2017-09-11T11:22:08.577Z,18.60
2017-09-11T11:24:37.008Z,18.60
2017-09-11T11:27:04.464Z,18.70
2017-09-11T11:29:31.901Z,18.90
2017-09-11T11:31:59.369Z,19.00
2017-09-11T11:34:27.192Z,19.20
2017-09-11T11:36:54.658Z,19.40
2017-09-11T11:39:22.537Z,19.50
2017-09-11T11:41:50.058Z,19.70
2017-09-11T11:44:17.533Z,19.80
2017-09-11T11:46:46.421Z,19.50
2017-09-11T11:49:14.875Z,19.50
2017-09-11T11:51:43.483Z,19.30
2017-09-11T11:54:11.070Z,19.30
2017-09-11T11:56:39.350Z,18.90
2017-09-11T11:59:07.828Z,18.80
2017-09-11T12:01:35.769Z,18.80
2017-09-11T12:04:04.064Z,18.80
2017-09-11T12:06:31.504Z,18.80
2017-09-11T12:08:58.988Z,19.00
2017-09-11T12:11:26.480Z,19.10
2017-09-11T12:13:54.179Z,19.20
2017-09-11T12:16:22.033Z,19.30
2017-09-11T12:18:49.501Z,19.30
2017-09-11T12:21:18.757Z,19.60
2017-09-11T12:23:46.821Z,19.50
2017-09-11T12:26:14.564Z,19.80
2017-09-11T12:28:42.705Z,19.70
2017-09-11T12:31:11.658Z,19.70
2017-09-11T12:33:39.650Z,19.80
2017-09-11T12:36:07.310Z,19.80
2017-09-11T12:38:36.069Z,19.40
2017-09-11T12:41:04.316Z,19.30
2017-09-11T12:43:32.191Z,19.20
2017-09-11T12:46:00.938Z,19.20
2017-09-11T12:48:30.026Z,19.20
2017-09-11T12:50:57.452Z,19.40
2017-09-11T12:53:26.168Z,19.80
2017-09-11T12:55:53.607Z,19.80
2017-09-11T12:58:21.694Z,19.90
2017-09-11T13:00:49.622Z,19.90
2017-09-11T13:03:17.171Z,19.80
2017-09-11T13:05:44.750Z,19.80
2017-09-11T13:08:12.206Z,19.60
2017-09-11T13:10:39.648Z,19.50
2017-09-11T13:13:07.132Z,19.30
2017-09-11T13:15:34.573Z,19.20
2017-09-11T13:18:02.597Z,19.10
2017-09-11T13:20:31.562Z,19.10
2017-09-11T13:22:59.277Z,19.00
2017-09-11T13:25:27.171Z,18.90
2017-09-11T13:27:55.404Z,18.80
2017-09-11T13:30:23.416Z,18.70
2017-09-11T13:32:51.284Z,18.70
2017-09-11T13:35:19.493Z,18.60
2017-09-11T13:37:47.726Z,18.50
2017-09-11T13:40:15.176Z,18.40
2017-09-11T13:42:42.643Z,18.40
2017-09-11T13:45:11.216Z,18.40
2017-09-11T13:47:39.825Z,18.30
2017-09-11T13:50:09.008Z,18.30
2017-09-11T13:52:36.447Z,18.30
2017-09-11T13:55:03.882Z,18.30
2017-09-11T13:57:33.313Z,18.40
2017-09-11T14:00:00.819Z,18.40
2017-09-11T14:02:29.233Z,18.40
2017-09-11T14:04:57.974Z,18.40
2017-09-11T14:07:25.870Z,18.50
2017-09-11T14:09:53.298Z,18.50
2017-09-11T14:12:21.528Z,18.20
2017-09-11T14:14:50.495Z,18.00
2017-09-11T14:17:17.978Z,18.00
2017-09-11T14:19:47.043Z,18.00
2017-09-11T14:22:15.899Z,18.20
2017-09-11T14:24:45.417Z,18.40
2017-09-11T14:27:13.639Z,18.60
2017-09-11T14:29:42.329Z,18.60
2017-09-11T14:32:09.908Z,18.80
2017-09-11T14:34:37.620Z,19.20
2017-09-11T14:37:05.081Z,19.40
2017-09-11T14:39:33.331Z,19.90
2017-09-11T14:42:01.553Z,20.10
2017-09-11T14:44:29.225Z,20.10
2017-09-11T14:46:57.287Z,20.30
2017-09-11T14:49:25.584Z,20.20
2017-09-11T14:51:53.164Z,20.20
2017-09-11T14:54:20.821Z,20.20
2017-09-11T14:56:49.811Z,20.20
2017-09-11T14:59:18.155Z,20.20
2017-09-11T15:01:46.372Z,20.20
2017-09-11T15:04:13.816Z,20.10
2017-09-11T15:06:41.294Z,20.00
2017-09-11T15:09:09.126Z,19.90
2017-09-11T15:11:36.573Z,19.80
2017-09-11T15:14:04.039Z,19.60
2017-09-11T15:16:31.893Z,19.60
2017-09-11T15:18:59.736Z,19.70
2017-09-11T15:21:28.817Z,20.00
2017-09-11T15:23:56.563Z,20.00
2017-09-11T15:26:24.319Z,20.00
2017-09-11T15:28:52.071Z,19.90
2017-09-11T15:31:20.281Z,19.70
2017-09-11T15:33:48.389Z,19.70
2017-09-11T15:36:15.834Z,19.70
2017-09-11T15:38:44.134Z,19.50
2017-09-11T15:41:11.673Z,19.50
2017-09-11T15:43:39.270Z,19.40
2017-09-11T15:46:07.317Z,19.40
2017-09-11T15:48:36.714Z,19.20
2017-09-11T15:51:05.487Z,19.20
2017-09-11T15:53:32.925Z,19.20
2017-09-11T15:56:00.381Z,19.00
2017-09-11T15:58:29.021Z,18.80
2017-09-11T16:00:57.618Z,18.80
2017-09-11T16:03:26.434Z,18.80
2017-09-11T16:05:54.263Z,18.80
2017-09-11T16:08:21.728Z,18.80
2017-09-11T16:10:49.183Z,18.70
2017-09-11T16:13:16.629Z,18.70
2017-09-11T16:15:44.590Z,18.70
2017-09-11T16:18:12.632Z,18.70
2017-09-11T16:20:40.895Z,18.60
2017-09-11T16:23:08.762Z,18.60
2017-09-11T16:25:36.719Z,18.50
2017-09-11T16:28:05.085Z,18.40
2017-09-11T16:30:33.306Z,18.50
2017-09-11T16:33:00.769Z,18.40
2017-09-11T16:35:28.686Z,18.40
2017-09-11T16:37:56.140Z,18.40
2017-09-11T16:40:23.599Z,18.40
2017-09-11T16:42:51.167Z,18.40
2017-09-11T16:45:18.700Z,18.40
2017-09-11T16:47:46.362Z,18.30
2017-09-11T16:50:14.575Z,18.20
2017-09-11T16:52:42.046Z,18.20
2017-09-11T16:55:10.744Z,18.30
2017-09-11T16:57:39.386Z,18.30
2017-09-11T17:00:07.602Z,18.30
2017-09-11T17:02:36.094Z,18.30
2017-09-11T17:05:03.875Z,18.30
2017-09-11T17:07:32.125Z,18.20
2017-09-11T17:10:00.330Z,18.10
2017-09-11T17:12:27.861Z,18.10
2017-09-11T17:14:55.828Z,18.00
2017-09-11T17:17:23.522Z,18.00
2017-09-11T17:19:50.970Z,18.00
2017-09-11T17:22:20.233Z,17.90
2017-09-11T17:24:49.304Z,17.90
2017-09-11T17:27:16.760Z,17.90
2017-09-11T17:29:45.217Z,17.70
2017-09-11T17:32:12.678Z,17.70
2017-09-11T17:34:40.964Z,17.60
2017-09-11T17:37:08.441Z,17.60
2017-09-11T17:39:36.379Z,17.60
2017-09-11T17:42:03.813Z,17.60
2017-09-11T17:44:31.299Z,17.50
2017-09-11T17:47:00.492Z,17.40
2017-09-11T17:49:28.726Z,17.30
2017-09-11T17:51:56.518Z,17.30
2017-09-11T17:54:24.076Z,17.30
2017-09-11T17:56:52.091Z,17.20
2017-09-11T17:59:19.569Z,17.20
2017-09-11T18:01:47.953Z,17.20
2017-09-11T18:04:15.471Z,17.10
2017-09-11T18:06:42.924Z,17.10
2017-09-11T18:09:10.432Z,17.10
2017-09-11T18:11:38.750Z,16.90
2017-09-11T18:14:06.822Z,17.00
2017-09-11T18:16:34.271Z,16.90
2017-09-11T18:19:01.747Z,16.80
2017-09-11T18:21:29.447Z,16.80
2017-09-11T18:23:57.197Z,16.70
2017-09-11T18:26:25.063Z,16.70
2017-09-11T18:28:52.533Z,16.60
2017-09-11T18:31:19.998Z,16.60
2017-09-11T18:33:47.434Z,16.60
2017-09-11T18:36:15.876Z,16.60
2017-09-11T18:38:44.108Z,16.50
2017-09-11T18:41:11.851Z,16.50
2017-09-11T18:43:39.548Z,16.50
2017-09-11T18:46:07.664Z,16.40
2017-09-11T18:48:36.366Z,16.40
2017-09-11T18:51:04.273Z,16.40
2017-09-11T18:53:31.728Z,16.40
2017-09-11T18:55:59.470Z,16.40
2017-09-11T18:58:28.842Z,16.40
2017-09-11T19:00:57.485Z,16.40
2017-09-11T19:03:25.681Z,16.40
2017-09-11T19:05:53.126Z,16.40
2017-09-11T19:08:21.345Z,16.40
2017-09-11T19:10:48.953Z,16.40
2017-09-11T19:13:17.008Z,16.50
2017-09-11T19:15:44.832Z,16.50
2017-09-11T19:18:12.324Z,16.40
2017-09-11T19:20:40.410Z,16.40
2017-09-11T19:23:08.955Z,16.40
2017-09-11T19:25:36.719Z,16.40
2017-09-11T19:28:05.056Z,16.40
2017-09-11T19:30:32.538Z,16.50
2017-09-11T19:33:00.059Z,16.50
2017-09-11T19:35:27.639Z,16.40
2017-09-11T19:37:55.597Z,16.40
2017-09-11T19:40:23.817Z,16.40
2017-09-11T19:42:51.404Z,16.30
2017-09-11T19:45:19.651Z,16.40
2017-09-11T19:47:47.768Z,16.30
2017-09-11T19:50:15.810Z,16.30
2017-09-11T19:52:43.893Z,16.30
2017-09-11T19:55:11.369Z,16.30
2017-09-11T19:57:39.865Z,16.30
2017-09-11T20:00:07.734Z,16.40
2017-09-11T20:02:35.562Z,16.40
2017-09-11T20:05:03.043Z,16.40
2017-09-11T20:07:30.571Z,16.40
2017-09-11T20:09:58.049Z,16.40
2017-09-11T20:12:27.168Z,16.40
2017-09-11T20:14:54.624Z,16.40
2017-09-11T20:17:22.694Z,16.40
2017-09-11T20:19:50.160Z,16.30
2017-09-11T20:22:18.802Z,16.30
2017-09-11T20:24:46.756Z,16.30
2017-09-11T20:27:14.665Z,16.30
2017-09-11T20:29:42.874Z,16.30
2017-09-11T20:32:10.346Z,16.30
2017-09-11T20:34:38.578Z,16.30
2017-09-11T20:37:06.498Z,16.20
2017-09-11T20:39:33.969Z,16.20
2017-09-11T20:42:02.039Z,16.30
2017-09-11T20:44:29.493Z,16.20
2017-09-11T20:46:57.240Z,16.20
2017-09-11T20:49:25.437Z,16.20
2017-09-11T20:51:53.796Z,16.20
2017-09-11T20:54:21.500Z,16.20
2017-09-11T20:56:50.903Z,16.10
2017-09-11T20:59:18.367Z,16.20
2017-09-11T21:01:46.591Z,16.20
2017-09-11T21:04:14.060Z,16.20
2017-09-11T21:06:41.514Z,16.20
2017-09-11T21:09:08.989Z,16.20
2017-09-11T21:11:36.730Z,16.20
2017-09-11T21:14:04.708Z,16.20
2017-09-11T21:16:32.214Z,16.20
2017-09-11T21:19:00.019Z,16.20
2017-09-11T21:21:28.642Z,16.20
2017-09-11T21:23:56.257Z,16.20
2017-09-11T21:26:24.231Z,16.20
2017-09-11T21:28:51.702Z,16.20
2017-09-11T21:31:19.723Z,16.20
2017-09-11T21:33:47.194Z,16.10
2017-09-11T21:36:14.659Z,16.10
2017-09-11T21:38:43.267Z,16.10
2017-09-11T21:41:10.803Z,16.10
2017-09-11T21:43:38.309Z,16.10
2017-09-11T21:46:07.707Z,16.00
2017-09-11T21:48:35.930Z,16.00
2017-09-11T21:51:03.797Z,16.00
2017-09-11T21:53:32.128Z,16.00
2017-09-11T21:55:59.590Z,16.00
2017-09-11T21:58:27.385Z,16.10
2017-09-11T22:00:55.396Z,16.10
2017-09-11T22:03:23.650Z,16.10
2017-09-11T22:05:51.098Z,16.00
2017-09-11T22:08:19.017Z,16.00
2017-09-11T22:10:47.320Z,16.00
2017-09-11T22:13:16.086Z,16.00
2017-09-11T22:15:44.717Z,15.90
2017-09-11T22:18:12.439Z,15.90
2017-09-11T22:20:40.187Z,15.90
2017-09-11T22:23:08.077Z,15.90
2017-09-11T22:25:36.548Z,15.90
2017-09-11T22:28:04.017Z,15.90
2017-09-11T22:30:32.422Z,15.90
2017-09-11T22:33:00.789Z,15.90
2017-09-11T22:35:29.497Z,15.90
2017-09-11T22:37:56.942Z,15.80
2017-09-11T22:40:24.788Z,15.80
2017-09-11T22:42:52.265Z,15.80
2017-09-11T22:45:21.117Z,15.80
2017-09-11T22:47:50.805Z,15.80
2017-09-11T22:50:18.677Z,15.90
2017-09-11T22:52:46.128Z,15.90
2017-09-11T22:55:13.697Z,15.90
2017-09-11T22:57:41.678Z,15.90
2017-09-11T23:00:09.157Z,15.80
2017-09-11T23:02:36.940Z,15.80
2017-09-11T23:05:04.624Z,15.80
2017-09-11T23:07:32.931Z,15.80
2017-09-11T23:10:01.009Z,15.80
2017-09-11T23:12:29.142Z,15.80
2017-09-11T23:14:57.006Z,15.80
2017-09-11T23:17:24.460Z,15.80
2017-09-11T23:19:52.347Z,15.80
2017-09-11T23:22:20.298Z,15.80
2017-09-11T23:24:49.253Z,15.80
2017-09-11T23:27:16.695Z,15.80
2017-09-11T23:29:45.054Z,15.80
2017-09-11T23:32:12.593Z,15.80
2017-09-11T23:34:40.345Z,15.80
2017-09-11T23:37:07.981Z,15.80
2017-09-11T23:39:35.853Z,15.90
2017-09-11T23:42:03.329Z,15.80
2017-09-11T23:44:30.759Z,15.80
2017-09-11T23:46:59.822Z,15.80
2017-09-11T23:49:28.057Z,15.80
2017-09-11T23:51:55.504Z,15.80
2017-09-11T23:54:23.128Z,15.80
2017-09-11T23:56:51.316Z,15.90
2017-09-11T23:59:19.415Z,15.80
